Main page

Waddington, England

RAF Waddington

latitude: 53-10N, longitude: 000-31W, elevation: 68 m

Current weather observation

The report was made 49 minutes ago, at 22:50 UTC
Wind 7 kt from the East/Southeast
Temperature 9°C
Humidity 93%
Pressure 1011 hPa
Visibility: 2500 m
Broken clouds at a height of 30000 ft

METAR: EGXW 042250Z 11007KT 2500 BR BKN300 09/08 Q1011 YLO1

Time: 00:39 (23:39 UTC)

TAF: missing


Weather observations and forecasts of more than 4000 airports (METAR and TAF reports).

The available stations are represented by yellow and red dots on the map.

Hover mouse over dot to see the name of the station.

Then click to see weather observations and forecasts.

To change the map : click on the green buttons with a black cross to zoom in, on the green button with a dash to zoom out, or on the green arrows for adjacent maps.